createdAt,value
2019-03-30T00:02:30.385Z,64.00
2019-03-30T00:05:01.160Z,64.03
2019-03-30T00:07:32.015Z,63.93
2019-03-30T00:10:02.775Z,63.98
2019-03-30T00:12:33.605Z,64.22
2019-03-30T00:15:04.442Z,64.15
2019-03-30T00:17:35.344Z,64.16
2019-03-30T00:20:06.476Z,64.33
2019-03-30T00:22:37.242Z,64.38
2019-03-30T00:25:08.218Z,64.58
2019-03-30T00:27:38.954Z,64.75
2019-03-30T00:30:10.067Z,64.83
2019-03-30T00:32:40.839Z,64.85
2019-03-30T00:35:11.695Z,64.72
2019-03-30T00:37:42.432Z,64.78
2019-03-30T00:40:13.379Z,64.77
2019-03-30T00:42:44.426Z,65.01
2019-03-30T00:45:15.199Z,65.04
2019-03-30T00:47:46.132Z,65.10
2019-03-30T00:50:17.050Z,64.97
2019-03-30T00:52:47.772Z,65.16
2019-03-30T00:55:18.521Z,65.37
2019-03-30T00:57:51.517Z,65.49
2019-03-30T01:00:22.341Z,65.20
2019-03-30T01:02:53.097Z,65.38
2019-03-30T01:05:23.890Z,65.58
2019-03-30T01:07:54.705Z,65.61
2019-03-30T01:10:25.584Z,65.74
2019-03-30T01:12:56.593Z,65.98
2019-03-30T01:15:27.535Z,66.21
2019-03-30T01:17:58.309Z,66.07
2019-03-30T01:20:29.049Z,66.41
2019-03-30T01:22:59.762Z,66.17
2019-03-30T01:25:30.618Z,65.94
2019-03-30T01:28:01.344Z,66.09
2019-03-30T01:30:32.097Z,66.30
2019-03-30T01:33:02.868Z,65.97
2019-03-30T01:35:33.943Z,65.73
2019-03-30T01:38:04.703Z,66.47
2019-03-30T01:40:35.478Z,66.41
2019-03-30T01:43:06.446Z,66.16
2019-03-30T01:45:37.216Z,65.80
2019-03-30T01:48:07.956Z,65.68
2019-03-30T01:50:38.719Z,66.00
2019-03-30T01:53:09.626Z,66.21
2019-03-30T01:55:40.435Z,66.43
2019-03-30T01:58:11.204Z,66.19
2019-03-30T02:00:42.003Z,66.51
2019-03-30T02:03:12.934Z,66.52
2019-03-30T02:05:43.721Z,66.37
2019-03-30T02:08:14.558Z,66.28
2019-03-30T02:10:46.350Z,66.31
2019-03-30T02:13:17.318Z,66.24
2019-03-30T02:15:48.084Z,66.25
2019-03-30T02:18:19.923Z,66.11
2019-03-30T02:20:50.750Z,66.28
2019-03-30T02:23:21.479Z,66.41
2019-03-30T02:25:52.417Z,66.29
2019-03-30T02:28:23.172Z,66.27
2019-03-30T02:30:55.038Z,66.36
2019-03-30T02:33:25.790Z,66.56
2019-03-30T02:35:56.568Z,66.57
2019-03-30T02:38:27.491Z,66.46
2019-03-30T02:40:58.288Z,66.72
2019-03-30T02:43:29.185Z,66.57
2019-03-30T02:46:01.108Z,66.47
2019-03-30T02:48:31.960Z,66.78
2019-03-30T02:51:02.856Z,66.78
2019-03-30T02:53:33.668Z,66.63
2019-03-30T02:56:04.420Z,66.55
2019-03-30T02:58:35.306Z,66.49
2019-03-30T03:01:06.371Z,66.29
2019-03-30T03:03:37.235Z,66.48
2019-03-30T03:06:08.011Z,66.52
2019-03-30T03:08:39.005Z,66.47
2019-03-30T03:11:09.762Z,66.89
2019-03-30T03:13:40.645Z,66.65
2019-03-30T03:16:11.663Z,66.87
2019-03-30T03:18:42.565Z,66.94
2019-03-30T03:21:13.484Z,66.96
2019-03-30T03:23:44.266Z,67.06
2019-03-30T03:26:15.273Z,67.06
2019-03-30T03:28:46.151Z,67.06
2019-03-30T03:31:16.915Z,67.11
2019-03-30T03:33:47.790Z,67.30
2019-03-30T03:36:18.522Z,67.43
2019-03-30T03:38:49.546Z,67.49
2019-03-30T03:41:20.304Z,67.61
2019-03-30T03:43:51.417Z,67.44
2019-03-30T03:46:22.149Z,67.45
2019-03-30T03:48:52.994Z,67.44
2019-03-30T03:51:26.754Z,67.53
2019-03-30T03:53:57.742Z,67.23
2019-03-30T03:56:30.682Z,66.82
2019-03-30T03:59:03.073Z,67.12
2019-03-30T04:01:35.668Z,67.04
2019-03-30T04:04:11.069Z,67.00
2019-03-30T04:06:44.275Z,66.88
2019-03-30T04:09:17.697Z,67.01
2019-03-30T04:11:50.348Z,67.05
2019-03-30T04:14:23.727Z,67.00
2019-03-30T04:16:55.049Z,67.28
2019-03-30T04:19:26.679Z,67.34
2019-03-30T04:21:58.255Z,67.63
2019-03-30T04:24:29.732Z,67.55
2019-03-30T04:27:01.036Z,67.51
2019-03-30T04:29:32.827Z,67.27
2019-03-30T04:32:06.557Z,67.48
2019-03-30T04:34:38.005Z,67.51
2019-03-30T04:37:08.938Z,67.65
2019-03-30T04:42:24.056Z,67.84
2019-03-30T04:44:54.988Z,67.63
2019-03-30T04:47:25.809Z,67.72
2019-03-30T04:49:58.930Z,67.55
2019-03-30T04:52:29.815Z,67.74
2019-03-30T04:55:02.599Z,67.89
2019-03-30T04:57:33.629Z,67.40
2019-03-30T05:00:04.864Z,67.12
2019-03-30T05:02:35.768Z,67.00
2019-03-30T05:05:06.972Z,67.27
2019-03-30T05:07:37.948Z,67.76
2019-03-30T05:10:09.149Z,67.58
2019-03-30T05:12:39.908Z,67.05
2019-03-30T05:15:11.041Z,67.30
2019-03-30T05:17:47.601Z,67.57
2019-03-30T05:20:14.911Z,67.04
2019-03-30T05:22:45.688Z,66.94
2019-03-30T05:25:16.618Z,67.21
2019-03-30T05:27:47.468Z,66.80
2019-03-30T05:30:18.342Z,66.23
2019-03-30T05:32:49.642Z,65.09
2019-03-30T05:35:21.410Z,64.69
2019-03-30T05:37:52.962Z,64.63
2019-03-30T05:40:25.765Z,64.26
2019-03-30T05:43:01.415Z,64.40
2019-03-30T05:45:34.898Z,63.83
2019-03-30T05:48:09.948Z,64.11
2019-03-30T05:50:41.577Z,64.54
2019-03-30T05:53:13.460Z,63.77
2019-03-30T05:55:45.098Z,63.86
2019-03-30T05:58:16.011Z,64.30
2019-03-30T06:00:47.571Z,64.36
2019-03-30T06:03:18.985Z,63.62
2019-03-30T06:05:50.595Z,64.00
2019-03-30T06:08:21.983Z,64.32
2019-03-30T06:10:53.404Z,64.02
2019-03-30T06:13:25.376Z,64.21
2019-03-30T06:15:57.153Z,64.26
2019-03-30T06:18:28.515Z,64.54
2019-03-30T06:20:59.763Z,63.50
2019-03-30T06:23:31.116Z,63.10
2019-03-30T06:26:02.882Z,63.72
2019-03-30T06:28:34.406Z,64.14
2019-03-30T06:31:06.002Z,64.55
2019-03-30T06:33:37.998Z,63.86
2019-03-30T06:36:09.491Z,64.14
2019-03-30T06:38:41.439Z,63.25
2019-03-30T06:41:13.589Z,62.73
2019-03-30T06:43:45.122Z,62.52
2019-03-30T06:46:16.986Z,62.38
2019-03-30T06:48:48.525Z,61.70
2019-03-30T06:51:21.166Z,61.52
2019-03-30T06:53:52.712Z,61.31
2019-03-30T06:56:24.270Z,61.80
2019-03-30T06:58:55.626Z,62.03
2019-03-30T07:01:28.750Z,61.73
2019-03-30T07:04:01.380Z,61.08
2019-03-30T07:06:33.774Z,60.52
2019-03-30T07:09:06.742Z,60.71
2019-03-30T07:11:46.945Z,60.53
2019-03-30T07:14:18.060Z,60.35
2019-03-30T07:16:50.305Z,60.65
2019-03-30T07:19:22.537Z,61.37
2019-03-30T07:21:53.501Z,61.21
2019-03-30T07:24:24.728Z,61.33
2019-03-30T07:26:55.715Z,61.61
2019-03-30T07:29:26.737Z,61.61
2019-03-30T07:31:58.048Z,60.55
2019-03-30T07:34:28.819Z,59.79
2019-03-30T07:36:59.947Z,60.59
2019-03-30T07:39:30.752Z,60.21
2019-03-30T07:42:01.846Z,58.95
2019-03-30T07:44:32.636Z,58.79
2019-03-30T07:47:03.410Z,58.74
2019-03-30T07:49:34.216Z,59.17
2019-03-30T07:52:04.940Z,58.67
2019-03-30T07:54:35.706Z,57.88
2019-03-30T07:57:16.532Z,58.03
2019-03-30T07:59:39.030Z,57.43
2019-03-30T08:02:09.787Z,57.60
2019-03-30T08:04:40.516Z,57.92
2019-03-30T08:07:11.287Z,57.96
2019-03-30T08:09:42.062Z,58.36
2019-03-30T08:12:12.791Z,58.60
2019-03-30T08:14:45.238Z,57.81
2019-03-30T08:17:16.141Z,57.15
2019-03-30T08:19:50.194Z,57.07
2019-03-30T08:22:19.373Z,57.21
2019-03-30T08:24:50.123Z,56.86
2019-03-30T08:27:20.854Z,56.32
2019-03-30T08:29:51.592Z,56.43
2019-03-30T08:32:22.360Z,56.26
2019-03-30T08:34:53.249Z,55.47
2019-03-30T08:37:24.040Z,54.97
2019-03-30T08:39:54.827Z,54.80
2019-03-30T08:42:25.730Z,55.04
2019-03-30T08:44:56.485Z,55.26
2019-03-30T08:47:27.233Z,55.73
2019-03-30T08:49:58.023Z,56.07
2019-03-30T08:52:28.779Z,54.94
2019-03-30T08:54:59.517Z,55.14
2019-03-30T08:57:30.287Z,55.33
2019-03-30T09:00:01.388Z,54.99
2019-03-30T09:02:32.299Z,54.65
2019-03-30T09:05:03.142Z,55.25
2019-03-30T09:07:33.891Z,55.02
2019-03-30T09:10:05.460Z,54.31
2019-03-30T09:12:36.386Z,54.37
2019-03-30T09:15:08.018Z,54.08
2019-03-30T09:17:38.778Z,54.64
2019-03-30T09:20:10.337Z,55.45
2019-03-30T09:22:41.107Z,54.79
2019-03-30T09:25:12.138Z,55.13
2019-03-30T09:27:42.862Z,55.34
2019-03-30T09:30:14.058Z,54.02
2019-03-30T09:32:45.352Z,54.97
2019-03-30T09:35:16.175Z,55.21
2019-03-30T09:37:46.982Z,54.54
2019-03-30T09:40:17.748Z,53.79
2019-03-30T09:42:49.472Z,53.84
2019-03-30T09:45:20.233Z,53.16
2019-03-30T09:47:50.973Z,53.36
2019-03-30T09:50:21.797Z,53.34
2019-03-30T09:52:52.588Z,52.34
2019-03-30T09:55:23.373Z,52.74
2019-03-30T09:57:54.258Z,52.80
2019-03-30T10:00:25.025Z,53.15
2019-03-30T10:02:56.952Z,52.63
2019-03-30T10:05:27.769Z,53.07
2019-03-30T10:07:58.596Z,52.81
2019-03-30T10:10:29.339Z,52.60
2019-03-30T10:13:00.128Z,53.09
2019-03-30T10:15:30.888Z,52.27
2019-03-30T10:18:01.727Z,52.84
2019-03-30T10:20:32.539Z,52.98
2019-03-30T10:23:03.274Z,53.43
2019-03-30T10:25:34.245Z,53.53
2019-03-30T10:28:07.067Z,53.53
2019-03-30T10:30:37.912Z,54.02
2019-03-30T10:33:08.699Z,53.20
2019-03-30T10:35:39.493Z,52.98
2019-03-30T10:38:10.257Z,53.26
2019-03-30T10:40:41.036Z,52.79
2019-03-30T10:43:11.798Z,52.97
2019-03-30T10:45:42.536Z,53.17
2019-03-30T10:48:13.400Z,52.65
2019-03-30T10:50:44.153Z,52.51
2019-03-30T10:53:14.910Z,52.72
2019-03-30T10:55:45.642Z,52.27
2019-03-30T10:58:16.443Z,52.20
2019-03-30T11:00:47.174Z,52.29
2019-03-30T11:03:17.931Z,52.13
2019-03-30T11:05:48.646Z,52.40
2019-03-30T11:08:20.459Z,51.92
2019-03-30T11:10:51.191Z,52.15
2019-03-30T11:13:21.940Z,51.54
2019-03-30T11:15:52.689Z,51.56
2019-03-30T11:18:23.449Z,52.05
2019-03-30T11:20:54.184Z,52.18
2019-03-30T11:23:24.954Z,51.82
2019-03-30T11:25:55.658Z,52.15
2019-03-30T11:28:26.399Z,52.13
2019-03-30T11:30:57.108Z,51.81
2019-03-30T11:33:27.876Z,51.58
2019-03-30T11:35:58.600Z,51.40
2019-03-30T11:38:29.357Z,51.77
2019-03-30T11:41:00.136Z,51.48
2019-03-30T11:43:30.937Z,51.86
2019-03-30T11:46:01.800Z,52.17
2019-03-30T11:48:33.511Z,52.45
2019-03-30T11:51:04.216Z,52.22
2019-03-30T11:53:34.979Z,52.67
2019-03-30T11:56:05.688Z,52.01
2019-03-30T11:58:36.538Z,51.87
2019-03-30T12:01:07.540Z,52.57
2019-03-30T12:03:38.581Z,52.26
2019-03-30T12:06:09.778Z,52.22
2019-03-30T12:08:40.590Z,52.39
2019-03-30T12:11:11.352Z,52.59
2019-03-30T12:13:42.128Z,52.84
2019-03-30T12:16:13.105Z,53.50
2019-03-30T12:18:44.034Z,53.44
2019-03-30T12:21:14.762Z,53.30
2019-03-30T12:23:45.568Z,52.62
2019-03-30T12:26:16.764Z,52.97
2019-03-30T12:28:48.045Z,53.06
2019-03-30T12:31:19.155Z,52.99
2019-03-30T12:33:50.543Z,53.04
2019-03-30T12:36:21.719Z,52.40
2019-03-30T12:38:53.122Z,52.19
2019-03-30T12:41:24.460Z,52.26
2019-03-30T12:43:55.696Z,52.26
2019-03-30T12:46:26.776Z,51.63
2019-03-30T12:48:58.008Z,51.64
2019-03-30T12:51:28.989Z,52.26
2019-03-30T12:54:00.439Z,52.21
2019-03-30T12:56:31.349Z,52.24
2019-03-30T12:59:02.848Z,51.99
2019-03-30T13:01:34.214Z,52.08
2019-03-30T13:04:05.590Z,52.20
2019-03-30T13:06:37.005Z,52.45
2019-03-30T13:09:08.643Z,52.53
2019-03-30T13:11:39.833Z,52.64
2019-03-30T13:14:11.444Z,52.41
2019-03-30T13:16:42.902Z,52.74
2019-03-30T13:19:14.199Z,52.77
2019-03-30T13:21:52.641Z,53.04
2019-03-30T13:24:18.671Z,53.07
2019-03-30T13:26:49.981Z,53.01
2019-03-30T13:29:21.220Z,53.06
2019-03-30T13:31:52.584Z,53.57
2019-03-30T13:34:24.097Z,53.58
2019-03-30T13:36:55.283Z,53.41
2019-03-30T13:39:26.908Z,53.39
2019-03-30T13:41:58.852Z,53.71
2019-03-30T13:44:30.145Z,54.22
2019-03-30T13:47:01.189Z,53.83
2019-03-30T13:49:32.584Z,54.14
2019-03-30T13:52:03.757Z,54.19
2019-03-30T13:54:38.508Z,53.79
2019-03-30T13:57:08.300Z,53.97
2019-03-30T13:59:40.575Z,53.97
2019-03-30T14:02:12.208Z,53.96
2019-03-30T14:04:44.671Z,54.03
2019-03-30T14:07:16.181Z,54.25
2019-03-30T14:09:47.441Z,54.15
2019-03-30T14:12:18.752Z,54.51
2019-03-30T14:14:49.993Z,54.26
2019-03-30T14:17:21.378Z,54.01
2019-03-30T14:19:52.707Z,53.89
2019-03-30T14:22:24.384Z,54.07
2019-03-30T14:24:57.864Z,54.34
2019-03-30T14:27:29.027Z,54.23
2019-03-30T14:30:00.479Z,54.30
2019-03-30T14:32:32.279Z,54.53
2019-03-30T14:35:03.946Z,54.60
2019-03-30T14:37:36.337Z,54.36
2019-03-30T14:40:08.592Z,54.13
2019-03-30T14:42:39.884Z,54.00
2019-03-30T14:45:11.611Z,54.24
2019-03-30T14:47:42.821Z,54.24
2019-03-30T14:50:14.095Z,54.72
2019-03-30T14:52:45.595Z,54.82
2019-03-30T14:55:16.858Z,54.68
2019-03-30T14:57:48.212Z,54.66
2019-03-30T15:00:19.423Z,54.67
2019-03-30T15:02:50.741Z,54.73
2019-03-30T15:05:22.088Z,54.66
2019-03-30T15:07:53.333Z,54.52
2019-03-30T15:10:24.881Z,54.36
2019-03-30T15:12:56.418Z,54.43
2019-03-30T15:15:27.838Z,54.39
2019-03-30T15:17:59.236Z,54.38
2019-03-30T15:20:30.394Z,54.12
2019-03-30T15:23:01.810Z,54.12
2019-03-30T15:25:33.217Z,53.88
2019-03-30T15:28:04.369Z,53.95
2019-03-30T15:30:35.917Z,53.87
2019-03-30T15:33:07.029Z,53.97
2019-03-30T15:35:38.170Z,53.93
2019-03-30T15:38:09.194Z,54.43
2019-03-30T15:40:40.606Z,54.43
2019-03-30T15:43:12.026Z,54.54
2019-03-30T15:45:43.460Z,54.67
2019-03-30T15:48:14.908Z,54.54
2019-03-30T15:50:46.431Z,54.91
2019-03-30T15:53:17.676Z,54.63
2019-03-30T15:55:49.112Z,54.78
2019-03-30T15:58:20.408Z,54.64
2019-03-30T16:00:51.881Z,54.83
2019-03-30T16:03:23.026Z,54.96
2019-03-30T16:05:54.492Z,55.08
2019-03-30T16:08:26.003Z,55.09
2019-03-30T16:10:57.141Z,54.82
2019-03-30T16:13:28.379Z,55.15
2019-03-30T16:15:59.678Z,55.01
2019-03-30T16:18:30.882Z,55.43
2019-03-30T16:21:02.385Z,55.31
2019-03-30T16:23:33.607Z,55.50
2019-03-30T16:26:05.039Z,55.59
2019-03-30T16:28:36.442Z,55.70
2019-03-30T16:31:07.675Z,55.76
2019-03-30T16:33:38.903Z,55.96
2019-03-30T16:36:10.317Z,56.21
2019-03-30T16:38:41.653Z,56.48
2019-03-30T16:41:13.078Z,56.60
2019-03-30T16:43:44.474Z,56.69
2019-03-30T16:46:15.730Z,56.80
2019-03-30T16:48:47.232Z,57.04
2019-03-30T16:51:18.355Z,57.15
2019-03-30T16:53:49.552Z,57.14
2019-03-30T16:56:20.908Z,57.35
2019-03-30T16:58:51.946Z,57.27
2019-03-30T17:01:22.962Z,57.22
2019-03-30T17:03:54.680Z,57.55
2019-03-30T17:06:27.494Z,57.66
2019-03-30T17:08:59.282Z,57.59
2019-03-30T17:11:30.859Z,57.74
2019-03-30T17:14:04.861Z,58.22
2019-03-30T17:16:36.911Z,58.33
2019-03-30T17:19:08.317Z,58.31
2019-03-30T17:21:39.198Z,58.39
2019-03-30T17:24:11.789Z,58.69
2019-03-30T17:26:43.182Z,58.62
2019-03-30T17:29:15.555Z,58.63
2019-03-30T17:31:46.707Z,58.97
2019-03-30T17:34:17.879Z,58.92
2019-03-30T17:36:49.946Z,59.21
2019-03-30T17:39:21.217Z,59.25
2019-03-30T17:41:52.402Z,59.44
2019-03-30T17:44:23.738Z,59.44
2019-03-30T17:46:54.757Z,59.56
2019-03-30T17:49:25.861Z,59.63
2019-03-30T17:51:57.095Z,59.43
2019-03-30T17:54:28.254Z,59.36
2019-03-30T17:56:59.286Z,59.34
2019-03-30T17:59:30.280Z,59.56
2019-03-30T18:02:02.484Z,59.78
2019-03-30T18:04:33.541Z,59.60
2019-03-30T18:07:04.822Z,59.39
2019-03-30T18:09:36.025Z,59.33
2019-03-30T18:12:07.070Z,59.45
2019-03-30T18:14:38.119Z,59.23
2019-03-30T18:17:09.207Z,59.33
2019-03-30T18:19:40.330Z,59.68
2019-03-30T18:22:11.662Z,60.36
2019-03-30T18:24:43.414Z,60.20
2019-03-30T18:27:14.598Z,60.45
2019-03-30T18:29:46.897Z,60.40
2019-03-30T18:32:20.255Z,60.42
2019-03-30T18:34:52.171Z,60.49
2019-03-30T18:37:24.940Z,60.75
2019-03-30T18:39:56.771Z,60.96
2019-03-30T18:42:29.409Z,60.80
2019-03-30T18:45:01.810Z,60.76
2019-03-30T18:47:33.333Z,61.00
2019-03-30T18:50:04.948Z,61.11
2019-03-30T18:52:36.545Z,61.41
2019-03-30T18:55:07.909Z,61.02
2019-03-30T18:57:39.043Z,61.34
2019-03-30T19:00:10.544Z,61.43
2019-03-30T19:02:41.632Z,61.54
2019-03-30T19:05:12.840Z,61.55
2019-03-30T19:07:43.910Z,61.58
2019-03-30T19:10:14.816Z,61.60
2019-03-30T19:12:45.838Z,62.27
2019-03-30T19:15:16.928Z,62.34
2019-03-30T19:17:48.336Z,62.49
2019-03-30T19:20:19.405Z,62.57
2019-03-30T19:22:52.180Z,62.69
2019-03-30T19:25:23.324Z,62.48
2019-03-30T19:27:54.526Z,62.49
2019-03-30T19:30:25.512Z,62.57
2019-03-30T19:32:56.585Z,62.59
2019-03-30T19:35:27.662Z,62.51
2019-03-30T19:37:58.816Z,62.32
2019-03-30T19:40:29.848Z,62.29
2019-03-30T19:43:00.829Z,62.36
2019-03-30T19:45:31.943Z,62.21
2019-03-30T19:48:03.075Z,62.32
2019-03-30T19:50:33.965Z,62.31
2019-03-30T19:53:05.033Z,62.21
2019-03-30T19:55:36.304Z,62.13
2019-03-30T19:58:09.217Z,62.40
2019-03-30T20:00:41.673Z,62.36
2019-03-30T20:03:12.960Z,62.39
2019-03-30T20:05:44.801Z,62.41
2019-03-30T20:08:16.245Z,62.37
2019-03-30T20:10:47.375Z,62.43
2019-03-30T20:13:18.470Z,62.35
2019-03-30T20:15:49.519Z,62.43
2019-03-30T20:18:20.490Z,62.47
2019-03-30T20:20:51.752Z,62.38
2019-03-30T20:23:23.801Z,62.48
2019-03-30T20:25:55.996Z,62.50
2019-03-30T20:28:27.030Z,62.45
2019-03-30T20:30:58.058Z,62.46
2019-03-30T20:33:29.087Z,62.45
2019-03-30T20:36:00.187Z,62.56
2019-03-30T20:38:31.524Z,62.28
2019-03-30T20:41:02.680Z,62.39
2019-03-30T20:43:33.993Z,62.37
2019-03-30T20:46:07.247Z,62.41
2019-03-30T20:48:38.685Z,62.44
2019-03-30T20:51:09.738Z,62.22
2019-03-30T20:53:40.835Z,62.37
2019-03-30T20:56:11.896Z,62.46
2019-03-30T20:58:42.915Z,62.37
2019-03-30T21:01:14.089Z,62.43
2019-03-30T21:03:45.730Z,62.29
2019-03-30T21:06:18.129Z,62.19
2019-03-30T21:08:49.802Z,62.09
2019-03-30T21:11:20.904Z,62.16
2019-03-30T21:13:51.820Z,62.11
2019-03-30T21:16:22.915Z,62.16
2019-03-30T21:18:54.672Z,62.12
2019-03-30T21:21:25.534Z,62.24
2019-03-30T21:23:57.565Z,62.27
2019-03-30T21:26:28.933Z,62.52
2019-03-30T21:29:00.207Z,62.72
2019-03-30T21:31:31.585Z,62.49
2019-03-30T21:34:03.174Z,62.84
2019-03-30T21:36:34.484Z,62.72
2019-03-30T21:39:08.779Z,62.89
2019-03-30T21:41:39.925Z,62.78
2019-03-30T21:44:22.029Z,63.35
2019-03-30T21:46:43.745Z,64.06
2019-03-30T21:49:14.666Z,63.65
2019-03-30T21:51:45.639Z,63.98
2019-03-30T21:54:16.723Z,64.29
2019-03-30T21:56:48.201Z,65.08
2019-03-30T21:59:19.162Z,64.81
2019-03-30T22:01:50.141Z,64.72
2019-03-30T22:04:21.137Z,65.33
2019-03-30T22:06:52.343Z,65.40
2019-03-30T22:09:23.511Z,65.26
2019-03-30T22:11:54.953Z,65.83
2019-03-30T22:14:26.229Z,66.34
2019-03-30T22:16:58.578Z,65.81
2019-03-30T22:19:29.698Z,65.61
2019-03-30T22:22:02.331Z,65.41
2019-03-30T22:24:33.397Z,65.44
2019-03-30T22:27:04.737Z,65.37
2019-03-30T22:29:37.037Z,65.90
2019-03-30T22:32:07.998Z,64.76
2019-03-30T22:34:39.018Z,64.85
2019-03-30T22:37:12.568Z,64.59
2019-03-30T22:39:43.559Z,64.69
2019-03-30T22:42:14.492Z,64.54
2019-03-30T22:44:45.580Z,65.09
2019-03-30T22:47:16.964Z,65.48
2019-03-30T22:49:48.281Z,65.67
2019-03-30T22:52:20.476Z,65.49
2019-03-30T22:54:53.496Z,65.88
2019-03-30T22:57:26.598Z,65.89
2019-03-30T22:59:57.598Z,65.57
2019-03-30T23:02:28.898Z,65.54
2019-03-30T23:05:00.380Z,65.74
2019-03-30T23:07:31.486Z,65.90
2019-03-30T23:10:04.994Z,66.30
2019-03-30T23:12:38.012Z,66.33
2019-03-30T23:15:09.200Z,66.26
2019-03-30T23:17:41.439Z,66.48
2019-03-30T23:20:12.663Z,66.62
2019-03-30T23:22:43.711Z,66.59
2019-03-30T23:25:14.765Z,66.50
2019-03-30T23:27:45.825Z,66.61
2019-03-30T23:30:17.149Z,66.67
2019-03-30T23:32:48.233Z,66.79
2019-03-30T23:35:19.632Z,67.02
2019-03-30T23:37:50.686Z,67.01
2019-03-30T23:40:21.802Z,66.99
2019-03-30T23:42:52.910Z,67.04
2019-03-30T23:45:23.917Z,67.07
2019-03-30T23:47:54.872Z,67.19
2019-03-30T23:50:25.866Z,67.26
2019-03-30T23:52:57.080Z,67.38
2019-03-30T23:55:28.136Z,67.43
2019-03-30T23:57:59.015Z,67.54
